Sainte-Julie, Canada
Current Conditions -  °F | °C
As of 4:00 PM on Tuesday 27 Jan 2015 (Local Time) from CYHU Reporting Station
Broken Clouds Broken Clouds  
Wind Chill: -6°   Ceiling: 13000
Heat Index: 10°   Visibility: 9mi
Dew Point: -6°   Wind: 15mph
Humidity: 48%   Direction: 30°NNE
Pressure: 30.03"   Gusts: NA
Location:  45.58°N, 73.33°W
Report Text: CYHU 272100Z AUTO 03013KT 9SM FEW110 BKN130 M12/M21 A3003 RMK SLP172
Loading
Personal Weather Stations






























Interactive Weather Map New forecast layout! Learn more

10-Day Weather Forecast

Advertisements
Track Severe Weather on mobile